createdAt,value
2023-07-09T00:00:07.213Z,0.00
2023-07-09T00:01:07.157Z,0.00
2023-07-09T00:02:07.282Z,0.00
2023-07-09T00:03:07.215Z,0.00
2023-07-09T00:04:07.152Z,0.00
2023-07-09T00:05:07.229Z,0.00
2023-07-09T00:06:07.178Z,0.00
2023-07-09T00:07:07.096Z,0.00
2023-07-09T00:08:07.106Z,0.00
2023-07-09T00:09:07.081Z,0.00
2023-07-09T00:10:07.081Z,0.00
2023-07-09T00:11:07.055Z,0.00
2023-07-09T00:12:07.045Z,0.00
2023-07-09T00:13:07.059Z,0.00
2023-07-09T00:14:07.159Z,0.00
2023-07-09T00:15:07.164Z,0.00
2023-07-09T00:16:07.169Z,0.00
2023-07-09T00:17:07.000Z,0.00
2023-07-09T00:18:06.977Z,0.00
2023-07-09T00:19:06.975Z,0.00
2023-07-09T00:20:07.012Z,0.00
2023-07-09T00:21:06.973Z,0.00
2023-07-09T00:22:06.938Z,0.00
2023-07-09T00:23:06.924Z,0.00
2023-07-09T00:24:06.932Z,0.00
2023-07-09T00:25:06.920Z,0.00
2023-07-09T00:26:07.045Z,0.00
2023-07-09T00:27:06.874Z,0.00
2023-07-09T00:28:06.869Z,0.00
2023-07-09T00:29:06.883Z,0.00
2023-07-09T00:30:06.854Z,0.00
2023-07-09T00:31:06.882Z,0.00
2023-07-09T00:32:06.848Z,0.00
2023-07-09T00:33:06.877Z,0.00
2023-07-09T00:34:06.812Z,0.00
2023-07-09T00:35:06.813Z,0.00
2023-07-09T00:36:06.817Z,0.00
2023-07-09T00:37:06.778Z,0.00
2023-07-09T00:38:06.761Z,0.00
2023-07-09T00:39:06.764Z,0.00
2023-07-09T00:40:06.745Z,0.00
2023-07-09T00:41:06.865Z,0.00
2023-07-09T00:42:06.724Z,0.00
2023-07-09T00:43:06.723Z,0.00
2023-07-09T00:44:06.710Z,0.00
2023-07-09T00:45:06.694Z,0.00
2023-07-09T00:46:06.787Z,0.00
2023-07-09T00:47:06.701Z,0.00
2023-07-09T00:48:06.750Z,0.00
2023-07-09T00:49:06.721Z,0.00
2023-07-09T00:50:06.641Z,0.00
2023-07-09T00:51:06.640Z,0.00
2023-07-09T00:52:06.637Z,0.00
2023-07-09T00:53:06.607Z,0.00
2023-07-09T00:54:06.603Z,0.00
2023-07-09T00:55:08.986Z,0.00
2023-07-09T00:56:06.632Z,0.00
2023-07-09T00:57:06.573Z,0.00
2023-07-09T00:58:06.557Z,0.00
2023-07-09T00:59:06.549Z,0.00
2023-07-09T01:00:06.536Z,0.00
2023-07-09T01:01:06.558Z,0.00
2023-07-09T01:02:06.530Z,0.00
2023-07-09T01:03:06.526Z,0.00
2023-07-09T01:04:06.493Z,0.00
2023-07-09T01:05:06.513Z,0.00
2023-07-09T01:06:06.815Z,0.00
2023-07-09T01:07:06.477Z,0.00
2023-07-09T01:08:06.451Z,0.00
2023-07-09T01:09:06.442Z,0.00
2023-07-09T01:10:06.444Z,0.00
2023-07-09T01:11:06.407Z,0.00
2023-07-09T01:12:06.428Z,0.00
2023-07-09T01:13:06.388Z,0.00
2023-07-09T01:14:06.472Z,0.00
2023-07-09T01:15:06.373Z,0.00
2023-07-09T01:16:06.609Z,0.00
2023-07-09T01:17:06.386Z,0.00
2023-07-09T01:18:06.354Z,0.00
2023-07-09T01:19:06.355Z,0.00
2023-07-09T01:20:06.316Z,0.00
2023-07-09T01:21:06.303Z,0.00
2023-07-09T01:22:06.362Z,0.00
2023-07-09T01:23:06.327Z,0.00
2023-07-09T01:24:06.281Z,0.00
2023-07-09T01:25:06.261Z,0.00
2023-07-09T01:26:06.574Z,0.00
2023-07-09T01:27:06.232Z,0.00
2023-07-09T01:28:06.246Z,0.00
2023-07-09T01:29:06.221Z,0.00
2023-07-09T01:30:06.201Z,0.00
2023-07-09T01:31:06.231Z,0.00
2023-07-09T01:32:06.177Z,0.00
2023-07-09T01:33:06.232Z,0.00
2023-07-09T01:34:06.183Z,0.00
2023-07-09T01:35:06.235Z,0.00
2023-07-09T01:36:06.327Z,0.00
2023-07-09T01:37:06.125Z,0.00
2023-07-09T01:38:06.113Z,0.00
2023-07-09T01:39:06.138Z,0.00
2023-07-09T01:40:10.917Z,0.00
2023-07-09T01:41:07.085Z,0.00
2023-07-09T01:42:06.073Z,0.00
2023-07-09T01:43:06.074Z,0.00
2023-07-09T01:44:06.139Z,0.00
2023-07-09T01:45:06.046Z,0.00
2023-07-09T01:46:06.270Z,0.00
2023-07-09T01:47:06.099Z,0.00
2023-07-09T01:48:06.042Z,0.00
2023-07-09T01:49:06.019Z,0.00
2023-07-09T01:50:05.985Z,0.00
2023-07-09T01:51:06.027Z,0.00
2023-07-09T01:52:05.961Z,0.00
2023-07-09T01:53:05.952Z,0.00
2023-07-09T01:54:05.958Z,0.00
2023-07-09T01:55:05.936Z,0.00
2023-07-09T01:56:06.301Z,0.00
2023-07-09T01:57:05.912Z,0.00
2023-07-09T01:58:05.904Z,0.00
2023-07-09T01:59:05.955Z,0.00
2023-07-09T02:00:05.881Z,0.00
2023-07-09T02:01:05.903Z,0.00
2023-07-09T02:02:05.848Z,0.00
2023-07-09T02:03:05.959Z,0.00
2023-07-09T02:04:05.896Z,0.00
2023-07-09T02:05:05.841Z,0.00
2023-07-09T02:06:05.919Z,0.00
2023-07-09T02:07:05.821Z,0.00
2023-07-09T02:08:05.788Z,0.00
2023-07-09T02:09:05.777Z,0.00
2023-07-09T02:10:05.782Z,0.00
2023-07-09T02:11:05.775Z,0.00
2023-07-09T02:12:05.749Z,0.00
2023-07-09T02:13:05.735Z,0.00
2023-07-09T02:14:05.745Z,0.00
2023-07-09T02:15:05.738Z,0.00
2023-07-09T02:16:05.993Z,0.00
2023-07-09T02:17:05.721Z,0.00
2023-07-09T02:18:05.786Z,0.00
2023-07-09T02:19:05.678Z,0.00
2023-07-09T02:20:05.724Z,0.00
2023-07-09T02:21:05.661Z,0.00
2023-07-09T02:22:05.643Z,0.00
2023-07-09T02:23:05.640Z,0.00
2023-07-09T02:24:05.636Z,4.00
2023-07-09T02:25:05.618Z,4.00
2023-07-09T02:26:05.831Z,4.00
2023-07-09T02:27:05.590Z,0.00
2023-07-09T02:28:05.586Z,0.00
2023-07-09T02:29:05.566Z,0.00
2023-07-09T02:30:05.590Z,4.00
2023-07-09T02:31:05.564Z,4.00
2023-07-09T02:32:05.526Z,0.00
2023-07-09T02:33:05.571Z,4.00
2023-07-09T02:34:05.502Z,4.00
2023-07-09T02:35:05.524Z,4.00
2023-07-09T02:36:05.733Z,4.00
2023-07-09T02:37:05.475Z,4.00
2023-07-09T02:38:05.467Z,4.00
2023-07-09T02:39:05.499Z,4.00
2023-07-09T02:40:05.464Z,8.00
2023-07-09T02:41:05.436Z,8.00
2023-07-09T02:42:05.415Z,8.00
2023-07-09T02:43:05.483Z,8.00
2023-07-09T02:44:05.396Z,8.00
2023-07-09T02:45:05.418Z,12.00
2023-07-09T02:46:05.454Z,12.00
2023-07-09T02:47:05.385Z,12.00
2023-07-09T02:48:05.391Z,12.00
2023-07-09T02:49:05.348Z,16.00
2023-07-09T02:50:05.346Z,16.00
2023-07-09T02:51:05.333Z,16.00
2023-07-09T02:52:05.310Z,20.00
2023-07-09T02:53:05.334Z,20.00
2023-07-09T02:54:05.296Z,16.00
2023-07-09T02:55:05.325Z,20.00
2023-07-09T02:56:05.595Z,20.00
2023-07-09T02:57:05.265Z,24.00
2023-07-09T02:58:05.240Z,28.00
2023-07-09T02:59:05.267Z,28.00
2023-07-09T03:00:05.259Z,28.00
2023-07-09T03:01:05.226Z,32.00
2023-07-09T03:02:05.268Z,32.00
2023-07-09T03:03:05.282Z,36.00
2023-07-09T03:04:05.268Z,36.00
2023-07-09T03:05:05.215Z,40.00
2023-07-09T03:06:05.537Z,44.00
2023-07-09T03:07:05.168Z,44.00
2023-07-09T03:08:05.135Z,48.00
2023-07-09T03:09:05.147Z,48.00
2023-07-09T03:10:05.142Z,52.00
2023-07-09T03:11:05.143Z,56.00
2023-07-09T03:12:05.111Z,60.00
2023-07-09T03:13:05.125Z,60.00
2023-07-09T03:14:05.106Z,64.00
2023-07-09T03:15:05.067Z,68.00
2023-07-09T03:16:05.308Z,68.00
2023-07-09T03:17:05.132Z,72.00
2023-07-09T03:18:05.102Z,76.00
2023-07-09T03:19:05.044Z,76.00
2023-07-09T03:20:05.145Z,80.00
2023-07-09T03:21:05.010Z,84.00
2023-07-09T03:22:04.990Z,88.00
2023-07-09T03:23:05.020Z,92.00
2023-07-09T03:24:04.971Z,92.00
2023-07-09T03:25:04.997Z,96.00
2023-07-09T03:26:05.401Z,100.00
2023-07-09T03:27:04.999Z,104.00
2023-07-09T03:28:04.980Z,104.00
2023-07-09T03:29:04.927Z,108.00
2023-07-09T03:30:04.939Z,112.00
2023-07-09T03:31:04.896Z,116.00
2023-07-09T03:32:04.951Z,120.00
2023-07-09T03:33:04.920Z,124.00
2023-07-09T03:34:04.906Z,124.00
2023-07-09T03:35:04.875Z,132.00
2023-07-09T03:36:05.219Z,136.00
2023-07-09T03:37:04.834Z,136.00
2023-07-09T03:38:04.833Z,140.00
2023-07-09T03:39:04.811Z,144.00
2023-07-09T03:40:04.817Z,152.00
2023-07-09T03:41:04.790Z,152.00
2023-07-09T03:42:04.778Z,156.00
2023-07-09T03:43:04.811Z,164.00
2023-07-09T03:44:04.757Z,164.00
2023-07-09T03:45:04.781Z,164.00
2023-07-09T03:46:05.019Z,168.00
2023-07-09T03:47:04.828Z,176.00
2023-07-09T03:48:04.770Z,180.00
2023-07-09T03:49:04.714Z,184.00
2023-07-09T03:50:04.699Z,188.00
2023-07-09T03:51:04.709Z,192.00
2023-07-09T03:52:04.664Z,192.00
2023-07-09T03:53:04.669Z,200.00
2023-07-09T03:54:04.652Z,200.00
2023-07-09T03:55:04.636Z,204.00
2023-07-09T03:56:05.068Z,208.00
2023-07-09T03:57:04.621Z,212.00
2023-07-09T03:58:04.600Z,216.00
2023-07-09T03:59:04.614Z,220.00
2023-07-09T04:00:04.587Z,224.00
2023-07-09T04:01:04.624Z,228.00
2023-07-09T04:02:04.558Z,240.00
2023-07-09T04:03:04.569Z,240.00
2023-07-09T04:04:04.584Z,248.00
2023-07-09T04:05:04.529Z,252.00
2023-07-09T04:06:04.753Z,256.00
2023-07-09T04:07:04.518Z,256.00
2023-07-09T04:08:04.536Z,260.00
2023-07-09T04:09:04.519Z,264.00
2023-07-09T04:10:04.476Z,268.00
2023-07-09T04:11:04.513Z,272.00
2023-07-09T04:12:04.454Z,280.00
2023-07-09T04:13:04.450Z,284.00
2023-07-09T04:14:04.491Z,288.00
2023-07-09T04:15:04.485Z,284.00
2023-07-09T04:16:04.765Z,284.00
2023-07-09T04:17:04.401Z,288.00
2023-07-09T04:18:04.535Z,284.00
2023-07-09T04:19:04.383Z,288.00
2023-07-09T04:20:04.392Z,292.00
2023-07-09T04:21:04.364Z,300.00
2023-07-09T04:22:04.337Z,296.00
2023-07-09T04:23:04.335Z,300.00
2023-07-09T04:24:04.320Z,304.00
2023-07-09T04:25:04.342Z,308.00
2023-07-09T04:26:04.615Z,308.00
2023-07-09T04:27:04.366Z,312.00
2023-07-09T04:28:04.272Z,316.00
2023-07-09T04:29:04.268Z,320.00
2023-07-09T04:30:04.256Z,324.00
2023-07-09T04:31:04.321Z,324.00
2023-07-09T04:32:04.280Z,332.00
2023-07-09T04:33:04.285Z,340.00
2023-07-09T04:34:04.203Z,344.00
2023-07-09T04:35:04.199Z,352.00
2023-07-09T04:36:04.557Z,356.00
2023-07-09T04:37:04.174Z,352.00
2023-07-09T04:38:04.193Z,352.00
2023-07-09T04:39:04.176Z,352.00
2023-07-09T04:40:04.148Z,360.00
2023-07-09T04:41:04.137Z,360.00
2023-07-09T04:42:04.121Z,368.00
2023-07-09T04:43:04.138Z,372.00
2023-07-09T04:44:04.101Z,380.00
2023-07-09T04:45:04.096Z,384.00
2023-07-09T04:46:04.360Z,392.00
2023-07-09T04:47:04.093Z,396.00
2023-07-09T04:48:04.089Z,400.00
2023-07-09T04:49:04.045Z,404.00
2023-07-09T04:50:04.043Z,408.00
2023-07-09T04:51:04.060Z,412.00
2023-07-09T04:52:04.018Z,412.00
2023-07-09T04:53:04.004Z,412.00
2023-07-09T04:54:03.995Z,408.00
2023-07-09T04:55:03.983Z,412.00
2023-07-09T04:56:04.528Z,408.00
2023-07-09T04:57:03.959Z,412.00
2023-07-09T04:58:03.960Z,412.00
2023-07-09T04:59:03.940Z,416.00
2023-07-09T05:00:03.935Z,420.00
2023-07-09T05:01:03.950Z,424.00
2023-07-09T05:02:03.930Z,428.00
2023-07-09T05:03:03.976Z,432.00
2023-07-09T05:04:04.060Z,440.00
2023-07-09T05:05:03.880Z,456.00
2023-07-09T05:06:04.140Z,460.00
2023-07-09T05:07:03.866Z,464.00
2023-07-09T05:08:03.857Z,476.00
2023-07-09T05:09:03.848Z,480.00
2023-07-09T05:10:03.829Z,488.00
2023-07-09T05:11:03.837Z,496.00
2023-07-09T05:12:03.797Z,500.00
2023-07-09T05:13:03.799Z,508.00
2023-07-09T05:14:03.844Z,508.00
2023-07-09T05:15:03.773Z,512.00
2023-07-09T05:16:03.996Z,512.00
2023-07-09T05:17:03.774Z,508.00
2023-07-09T05:18:03.835Z,520.00
2023-07-09T05:19:03.768Z,512.00
2023-07-09T05:20:03.718Z,512.00
2023-07-09T05:21:03.740Z,516.00
2023-07-09T05:22:03.752Z,516.00
2023-07-09T05:23:03.677Z,520.00
2023-07-09T05:24:03.679Z,524.00
2023-07-09T05:25:03.673Z,528.00
2023-07-09T05:26:04.111Z,528.00
2023-07-09T05:27:03.652Z,536.00
2023-07-09T05:28:03.625Z,536.00
2023-07-09T05:29:03.617Z,544.00
2023-07-09T05:30:03.610Z,540.00
2023-07-09T05:31:03.609Z,540.00
2023-07-09T05:32:03.627Z,544.00
2023-07-09T05:33:03.642Z,532.00
2023-07-09T05:34:03.580Z,528.00
2023-07-09T05:35:03.622Z,524.00
2023-07-09T05:36:04.125Z,524.00
2023-07-09T05:37:03.554Z,536.00
2023-07-09T05:38:03.524Z,548.00
2023-07-09T05:39:03.524Z,556.00
2023-07-09T05:40:03.531Z,620.00
2023-07-09T05:41:03.483Z,612.00
2023-07-09T05:42:03.486Z,616.00
2023-07-09T05:43:03.468Z,620.00
2023-07-09T05:44:03.470Z,624.00
2023-07-09T05:45:03.452Z,636.00
2023-07-09T05:46:03.852Z,632.00
2023-07-09T05:47:03.488Z,632.00
2023-07-09T05:48:03.462Z,648.00
2023-07-09T05:49:03.393Z,660.00
2023-07-09T05:50:03.391Z,656.00
2023-07-09T05:51:03.413Z,604.00
2023-07-09T05:52:03.363Z,608.00
2023-07-09T05:53:03.365Z,612.00
2023-07-09T05:54:03.357Z,624.00
2023-07-09T05:55:03.333Z,636.00
2023-07-09T05:56:03.609Z,632.00
2023-07-09T05:57:03.310Z,648.00
2023-07-09T05:58:03.314Z,1164.00
2023-07-09T05:59:03.288Z,1288.00
2023-07-09T06:00:03.314Z,688.00
2023-07-09T06:01:03.319Z,668.00
2023-07-09T06:02:03.307Z,776.00
2023-07-09T06:03:03.387Z,832.00
2023-07-09T06:04:03.352Z,664.00
2023-07-09T06:05:03.228Z,656.00
2023-07-09T06:06:03.552Z,656.00
2023-07-09T06:07:03.227Z,672.00
2023-07-09T06:08:03.196Z,688.00
2023-07-09T06:09:03.180Z,704.00
2023-07-09T06:10:03.173Z,732.00
2023-07-09T06:11:03.226Z,760.00
2023-07-09T06:12:03.163Z,784.00
2023-07-09T06:13:03.149Z,796.00
2023-07-09T06:14:03.205Z,840.00
2023-07-09T06:15:03.126Z,1044.00
2023-07-09T06:16:03.488Z,1004.00
2023-07-09T06:17:03.410Z,1160.00
2023-07-09T06:18:03.128Z,1592.00
2023-07-09T06:19:03.089Z,880.00
2023-07-09T06:20:03.076Z,928.00
2023-07-09T06:21:03.084Z,944.00
2023-07-09T06:22:03.045Z,936.00
2023-07-09T06:23:03.054Z,1684.00
2023-07-09T06:24:03.031Z,2000.00
2023-07-09T06:25:03.020Z,852.00
2023-07-09T06:26:03.379Z,836.00
2023-07-09T06:27:03.030Z,832.00
2023-07-09T06:28:02.988Z,836.00
2023-07-09T06:29:02.979Z,836.00
2023-07-09T06:30:02.962Z,840.00
2023-07-09T06:31:03.016Z,844.00
2023-07-09T06:32:03.001Z,1120.00
2023-07-09T06:33:02.948Z,1136.00
2023-07-09T06:34:02.932Z,1140.00
2023-07-09T06:35:02.920Z,848.00
2023-07-09T06:36:03.301Z,848.00
2023-07-09T06:37:02.882Z,848.00
2023-07-09T06:38:02.913Z,864.00
2023-07-09T06:39:02.902Z,1072.00
2023-07-09T06:40:02.852Z,956.00
2023-07-09T06:41:02.850Z,892.00
2023-07-09T06:42:02.870Z,888.00
2023-07-09T06:43:02.816Z,924.00
2023-07-09T06:44:02.813Z,912.00
2023-07-09T06:45:02.808Z,924.00
2023-07-09T06:46:03.196Z,940.00
2023-07-09T06:47:02.835Z,1432.00
2023-07-09T06:48:02.858Z,1120.00
2023-07-09T06:49:02.763Z,948.00
2023-07-09T06:50:02.769Z,1048.00
2023-07-09T06:51:02.744Z,996.00
2023-07-09T06:52:02.748Z,964.00
2023-07-09T06:53:02.712Z,972.00
2023-07-09T06:54:02.706Z,1224.00
2023-07-09T06:55:02.724Z,2780.00
2023-07-09T06:56:03.197Z,4060.00
2023-07-09T06:57:02.705Z,1384.00
2023-07-09T06:58:02.668Z,3076.00
2023-07-09T06:59:02.658Z,7488.00
2023-07-09T07:00:02.639Z,5432.00
2023-07-09T07:01:02.646Z,1184.00
2023-07-09T07:02:02.643Z,1072.00
2023-07-09T07:03:02.716Z,1124.00
2023-07-09T07:04:02.641Z,1064.00
2023-07-09T07:05:02.622Z,1028.00
2023-07-09T07:06:02.847Z,1032.00
2023-07-09T07:07:02.564Z,1028.00
2023-07-09T07:08:02.589Z,1072.00
2023-07-09T07:09:02.542Z,1100.00
2023-07-09T07:10:02.561Z,1116.00
2023-07-09T07:11:02.585Z,1896.00
2023-07-09T07:12:02.506Z,1572.00
2023-07-09T07:13:02.497Z,1492.00
2023-07-09T07:14:02.556Z,1892.00
2023-07-09T07:15:02.471Z,2728.00
2023-07-09T07:16:02.797Z,1900.00
2023-07-09T07:17:02.489Z,3428.00
2023-07-09T07:18:02.517Z,3744.00
2023-07-09T07:19:02.442Z,5300.00
2023-07-09T07:20:02.434Z,7068.00
2023-07-09T07:21:02.441Z,5572.00
2023-07-09T07:22:02.401Z,4728.00
2023-07-09T07:23:02.412Z,9720.00
2023-07-09T07:24:02.380Z,3324.00
2023-07-09T07:25:02.366Z,3604.00
2023-07-09T07:26:03.073Z,8928.00
2023-07-09T07:27:02.362Z,21344.00
2023-07-09T07:28:02.357Z,14060.00
2023-07-09T07:29:02.347Z,5964.00
2023-07-09T07:30:02.366Z,2848.00
2023-07-09T07:31:02.311Z,2492.00
2023-07-09T07:32:02.364Z,2584.00
2023-07-09T07:33:02.346Z,2512.00
2023-07-09T07:34:02.284Z,2368.00
2023-07-09T07:35:02.260Z,2344.00
2023-07-09T07:37:02.260Z,2232.00
2023-07-09T07:38:02.259Z,2156.00
2023-07-09T07:39:02.227Z,2412.00
2023-07-09T07:40:02.280Z,2248.00
2023-07-09T07:41:02.197Z,2080.00
2023-07-09T07:42:02.689Z,2672.00
2023-07-09T07:43:02.240Z,1924.00
2023-07-09T07:44:02.175Z,1892.00
2023-07-09T07:45:02.176Z,1864.00
2023-07-09T07:46:02.866Z,1884.00
2023-07-09T07:47:02.158Z,1916.00
2023-07-09T07:48:02.170Z,1940.00
2023-07-09T07:49:02.143Z,2032.00
2023-07-09T07:50:02.114Z,2092.00
2023-07-09T07:51:02.105Z,2172.00
2023-07-09T07:52:02.117Z,2272.00
2023-07-09T07:53:02.074Z,2364.00
2023-07-09T07:54:02.064Z,2484.00
2023-07-09T07:55:02.066Z,2672.00
2023-07-09T07:56:02.483Z,3312.00
2023-07-09T07:57:02.050Z,9744.00
2023-07-09T07:58:02.034Z,13652.00
2023-07-09T07:59:02.026Z,11932.00
2023-07-09T08:00:03.819Z,3000.00
2023-07-09T08:01:02.297Z,2796.00
2023-07-09T08:02:02.204Z,2708.00
2023-07-09T08:03:02.041Z,2684.00
2023-07-09T08:04:02.135Z,2716.00
2023-07-09T08:05:02.037Z,2628.00
2023-07-09T08:06:02.798Z,2524.00
2023-07-09T08:07:02.041Z,2640.00
2023-07-09T08:08:02.013Z,2880.00
2023-07-09T08:09:01.926Z,27648.00
2023-07-09T08:10:01.984Z,31136.00
2023-07-09T08:11:01.879Z,42240.00
2023-07-09T08:12:01.891Z,3528.00
2023-07-09T08:13:01.871Z,3584.00
2023-07-09T08:14:02.028Z,2772.00
2023-07-09T08:15:01.888Z,2756.00
2023-07-09T08:16:02.284Z,2780.00
2023-07-09T08:17:01.829Z,2808.00
2023-07-09T08:18:02.012Z,2896.00
2023-07-09T08:19:01.848Z,3076.00
2023-07-09T08:20:01.952Z,3160.00
2023-07-09T08:21:01.780Z,3180.00
2023-07-09T08:22:01.766Z,3140.00
2023-07-09T08:23:01.751Z,2916.00
2023-07-09T08:24:01.771Z,2592.00
2023-07-09T08:25:01.731Z,2868.00
2023-07-09T08:26:02.284Z,3236.00
2023-07-09T08:27:01.718Z,3540.00
2023-07-09T08:28:01.712Z,3644.00
2023-07-09T08:29:01.721Z,3732.00
2023-07-09T08:30:01.688Z,3640.00
2023-07-09T08:31:01.962Z,4004.00
2023-07-09T08:32:01.729Z,4036.00
2023-07-09T08:33:01.722Z,4320.00
2023-07-09T08:34:01.682Z,4644.00
2023-07-09T08:36:01.625Z,14624.00
2023-07-09T08:37:01.622Z,45856.00
2023-07-09T08:38:01.632Z,42880.00
2023-07-09T08:39:01.627Z,25568.00
2023-07-09T08:40:01.610Z,18912.00
2023-07-09T08:41:01.964Z,30048.00
2023-07-09T08:42:03.720Z,31008.00
2023-07-09T08:43:02.381Z,29664.00
2023-07-09T08:44:01.612Z,40800.00
2023-07-09T08:45:01.532Z,69216.00
2023-07-09T08:46:01.531Z,64320.00
2023-07-09T08:47:01.526Z,71232.00
2023-07-09T08:48:01.579Z,71040.00
2023-07-09T08:49:01.493Z,75040.00
2023-07-09T08:50:01.538Z,77280.00
2023-07-09T08:51:01.731Z,67840.00
2023-07-09T08:52:01.467Z,47360.00
2023-07-09T08:53:01.458Z,18176.00
2023-07-09T08:54:01.443Z,15680.00
2023-07-09T08:55:01.434Z,19040.00
2023-07-09T08:56:01.525Z,23744.00
2023-07-09T08:57:01.415Z,15712.00
2023-07-09T08:58:01.412Z,32544.00
2023-07-09T08:59:01.418Z,45312.00
2023-07-09T09:00:01.416Z,28672.00
2023-07-09T09:01:01.540Z,8268.00
2023-07-09T09:02:01.513Z,3812.00
2023-07-09T09:03:01.504Z,3572.00
2023-07-09T09:04:01.473Z,3516.00
2023-07-09T09:05:01.350Z,3580.00
2023-07-09T09:06:01.328Z,3256.00
2023-07-09T09:07:01.334Z,2996.00
2023-07-09T09:08:04.616Z,2756.00
2023-07-09T09:09:01.299Z,2668.00
2023-07-09T09:10:01.300Z,2528.00
2023-07-09T09:11:01.621Z,2596.00
2023-07-09T09:12:01.311Z,2756.00
2023-07-09T09:13:01.246Z,3016.00
2023-07-09T09:14:01.321Z,3352.00
2023-07-09T09:15:01.239Z,3592.00
2023-07-09T09:16:01.249Z,3844.00
2023-07-09T09:17:01.223Z,3904.00
2023-07-09T09:18:01.260Z,4000.00
2023-07-09T09:19:01.222Z,4288.00
2023-07-09T09:20:01.169Z,4432.00
2023-07-09T09:21:01.394Z,4524.00
2023-07-09T09:22:02.406Z,4916.00
2023-07-09T09:23:01.146Z,5164.00
2023-07-09T09:24:01.138Z,4908.00
2023-07-09T09:25:01.124Z,4988.00
2023-07-09T09:26:13.753Z,6512.00
2023-07-09T09:27:02.103Z,7920.00
2023-07-09T09:28:01.097Z,11596.00
2023-07-09T09:29:01.079Z,22496.00
2023-07-09T09:30:01.095Z,37728.00
2023-07-09T09:31:01.284Z,48416.00
2023-07-09T09:32:01.097Z,45664.00
2023-07-09T09:33:01.124Z,27680.00
2023-07-09T09:34:01.040Z,15584.00
2023-07-09T09:35:01.046Z,35488.00
2023-07-09T09:36:01.043Z,48576.00
2023-07-09T09:37:01.024Z,31488.00
2023-07-09T09:38:00.992Z,15392.00
2023-07-09T09:39:01.000Z,10124.00
2023-07-09T09:41:01.099Z,17536.00
2023-07-09T09:42:00.960Z,10108.00
2023-07-09T09:43:00.949Z,6412.00
2023-07-09T09:44:00.932Z,4596.00
2023-07-09T09:45:00.928Z,4208.00
2023-07-09T09:46:00.960Z,4220.00
2023-07-09T09:47:01.489Z,4128.00
2023-07-09T09:48:00.956Z,3740.00
2023-07-09T09:49:00.882Z,3672.00
2023-07-09T09:50:00.878Z,5456.00
2023-07-09T09:51:01.018Z,7460.00
2023-07-09T09:52:00.855Z,8308.00
2023-07-09T09:53:00.844Z,6184.00
2023-07-09T09:54:00.838Z,5568.00
2023-07-09T09:55:00.836Z,7928.00
2023-07-09T09:56:00.842Z,10764.00
2023-07-09T09:57:00.824Z,12896.00
2023-07-09T09:58:00.807Z,15968.00
2023-07-09T09:59:00.805Z,19808.00
2023-07-09T10:00:00.834Z,26048.00
2023-07-09T10:01:00.972Z,39200.00
2023-07-09T10:02:00.765Z,37824.00
2023-07-09T10:03:00.957Z,31040.00
2023-07-09T10:04:00.740Z,13440.00
2023-07-09T10:05:00.746Z,8344.00
2023-07-09T10:06:00.751Z,27872.00
2023-07-09T10:07:00.740Z,57984.00
2023-07-09T10:08:00.707Z,91648.00
2023-07-09T10:09:00.695Z,89952.00
2023-07-09T10:10:00.675Z,77056.00
2023-07-09T10:11:00.833Z,44480.00
2023-07-09T10:12:00.662Z,13536.00
2023-07-09T10:13:00.653Z,3076.00
2023-07-09T10:14:00.689Z,2624.00
2023-07-09T10:15:00.646Z,3148.00
2023-07-09T10:16:00.625Z,5252.00
2023-07-09T10:17:00.640Z,4380.00
2023-07-09T10:18:00.688Z,2544.00
2023-07-09T10:19:00.723Z,2588.00
2023-07-09T10:20:00.580Z,2536.00
2023-07-09T10:21:00.669Z,2568.00
2023-07-09T10:22:00.595Z,2628.00
2023-07-09T10:23:00.589Z,2508.00
2023-07-09T10:24:00.549Z,2476.00
2023-07-09T10:25:00.558Z,2500.00
2023-07-09T10:26:00.526Z,2556.00
2023-07-09T10:27:00.536Z,2468.00
2023-07-09T10:28:00.538Z,2740.00
2023-07-09T10:29:00.504Z,2848.00
2023-07-09T10:30:11.928Z,2904.00
2023-07-09T10:31:01.937Z,2872.00
2023-07-09T10:32:00.492Z,2948.00
2023-07-09T10:33:00.477Z,2984.00
2023-07-09T10:34:00.450Z,3036.00
2023-07-09T10:35:00.428Z,3092.00
2023-07-09T10:36:00.560Z,3556.00
2023-07-09T10:37:00.433Z,4624.00
2023-07-09T10:38:00.397Z,6584.00
2023-07-09T10:39:00.536Z,6612.00
2023-07-09T10:40:00.432Z,8524.00
2023-07-09T10:41:06.520Z,14144.00
2023-07-09T10:42:01.377Z,25408.00
2023-07-09T10:43:00.351Z,50176.00
2023-07-09T10:44:00.332Z,74944.00
2023-07-09T10:45:00.375Z,90528.00
2023-07-09T10:46:00.321Z,93408.00
2023-07-09T10:47:00.559Z,92960.00
2023-07-09T10:48:00.343Z,93664.00
2023-07-09T10:49:00.299Z,93888.00
2023-07-09T10:50:00.277Z,69824.00
2023-07-09T10:51:00.306Z,82336.00
2023-07-09T10:52:00.282Z,73344.00
2023-07-09T10:53:00.282Z,79584.00
2023-07-09T10:54:00.236Z,84416.00
2023-07-09T10:55:00.249Z,7008.00
2023-07-09T10:56:00.218Z,52512.00
2023-07-09T10:57:00.250Z,14520.00
2023-07-09T10:58:00.207Z,85376.00
2023-07-09T10:59:00.193Z,91968.00
2023-07-09T11:00:00.203Z,89056.00
2023-07-09T11:01:00.180Z,76384.00
2023-07-09T11:02:00.276Z,32192.00
2023-07-09T11:03:00.244Z,82016.00
2023-07-09T11:04:00.200Z,89312.00
2023-07-09T11:05:00.142Z,96736.00
2023-07-09T11:06:00.125Z,96608.00
2023-07-09T11:07:00.119Z,38048.00
2023-07-09T11:08:00.143Z,73664.00
2023-07-09T11:09:00.097Z,15328.00
2023-07-09T11:10:00.204Z,10556.00
2023-07-09T11:11:00.101Z,4392.00
2023-07-09T11:12:00.067Z,4240.00
2023-07-09T11:13:00.081Z,8868.00
2023-07-09T11:14:00.050Z,26912.00
2023-07-09T11:15:00.040Z,11448.00
2023-07-09T11:16:00.110Z,21696.00
2023-07-09T11:17:00.028Z,88672.00
2023-07-09T11:18:00.026Z,88800.00
2023-07-09T11:19:00.008Z,84384.00
2023-07-09T11:20:00.006Z,80736.00
2023-07-09T11:20:59.981Z,77664.00
2023-07-09T11:22:00.004Z,76288.00
2023-07-09T11:22:59.991Z,78560.00
2023-07-09T11:23:59.950Z,86336.00
2023-07-09T11:24:59.961Z,91744.00
2023-07-09T11:25:59.941Z,92064.00
2023-07-09T11:26:59.938Z,86592.00
2023-07-09T11:27:59.963Z,80160.00
2023-07-09T11:28:59.905Z,77248.00
2023-07-09T11:29:59.901Z,82592.00
2023-07-09T11:30:59.888Z,82656.00
2023-07-09T11:31:59.962Z,93568.00
2023-07-09T11:33:13.759Z,93472.00
2023-07-09T11:34:00.857Z,4596.00
2023-07-09T11:34:59.840Z,82048.00
2023-07-09T11:35:59.855Z,18816.00
2023-07-09T11:36:59.885Z,26944.00
2023-07-09T11:37:59.827Z,4380.00
2023-07-09T11:38:59.821Z,36448.00
2023-07-09T11:39:59.811Z,48288.00
2023-07-09T11:40:59.809Z,53952.00
2023-07-09T11:41:59.797Z,45888.00
2023-07-09T11:42:59.789Z,29024.00
2023-07-09T11:43:59.808Z,3888.00
2023-07-09T11:44:59.739Z,76224.00
2023-07-09T11:45:59.887Z,31168.00
2023-07-09T11:46:59.802Z,50528.00
2023-07-09T11:47:59.794Z,29664.00
2023-07-09T11:48:59.715Z,64800.00
2023-07-09T11:49:59.704Z,52608.00
2023-07-09T11:50:59.696Z,56.00
2023-07-09T11:51:59.695Z,4544.00
2023-07-09T11:52:59.679Z,29440.00
2023-07-09T11:53:59.685Z,74688.00
2023-07-09T11:54:59.652Z,3052.00
2023-07-09T11:55:59.684Z,4108.00
2023-07-09T11:56:59.685Z,31296.00
2023-07-09T11:57:59.620Z,13872.00
2023-07-09T11:58:59.655Z,5368.00
2023-07-09T11:59:59.614Z,12164.00
2023-07-09T12:00:59.676Z,3000.00
2023-07-09T12:01:59.667Z,6484.00
2023-07-09T12:02:59.622Z,2940.00
2023-07-09T12:03:59.654Z,4788.00
2023-07-09T12:04:59.553Z,5144.00
2023-07-09T12:05:59.540Z,3264.00
2023-07-09T12:06:59.536Z,6092.00
2023-07-09T12:07:59.529Z,4568.00
2023-07-09T12:08:59.584Z,11072.00
2023-07-09T12:09:59.502Z,11512.00
2023-07-09T12:10:59.505Z,2844.00
2023-07-09T12:11:59.500Z,4120.00
2023-07-09T12:12:59.476Z,2672.00
2023-07-09T12:13:59.532Z,11536.00
2023-07-09T12:14:59.487Z,3288.00
2023-07-09T12:15:59.497Z,2792.00
2023-07-09T12:16:59.428Z,55872.00
2023-07-09T12:17:59.489Z,39296.00
2023-07-09T12:18:59.445Z,8264.00
2023-07-09T12:19:59.418Z,8940.00
2023-07-09T12:20:59.414Z,69952.00
2023-07-09T12:21:59.399Z,23776.00
2023-07-09T12:22:59.381Z,3712.00
2023-07-09T12:23:59.358Z,7264.00
2023-07-09T12:24:59.346Z,2908.00
2023-07-09T12:25:59.340Z,3088.00
2023-07-09T12:26:59.370Z,4108.00
2023-07-09T12:27:59.315Z,4284.00